createdAt,value
2023-01-19T00:00:53.631Z,-0.40
2023-01-19T00:03:40.052Z,-0.40
2023-01-19T00:06:26.835Z,-0.40
2023-01-19T00:09:14.617Z,-0.40
2023-01-19T00:12:01.075Z,-0.40
2023-01-19T00:14:47.373Z,-0.40
2023-01-19T00:17:33.765Z,-0.40
2023-01-19T00:20:20.226Z,-0.50
2023-01-19T00:23:07.976Z,-0.50
2023-01-19T00:25:55.792Z,-0.40
2023-01-19T00:28:42.286Z,-0.40
2023-01-19T00:31:29.893Z,-0.30
2023-01-19T00:34:16.533Z,-0.30
2023-01-19T00:37:02.978Z,-0.30
2023-01-19T00:39:49.249Z,-0.30
2023-01-19T00:42:44.393Z,-0.30
2023-01-19T00:45:30.760Z,-0.30
2023-01-19T00:48:17.503Z,-0.10
2023-01-19T00:51:03.803Z,0.00
2023-01-19T00:53:50.233Z,-0.10
2023-01-19T00:56:36.917Z,-0.10
2023-01-19T00:59:25.709Z,-0.10
2023-01-19T01:02:12.450Z,-0.20
2023-01-19T01:05:02.841Z,-0.30
2023-01-19T01:07:50.542Z,-0.30
2023-01-19T01:10:37.026Z,-0.30
2023-01-19T01:13:26.225Z,-0.40
2023-01-19T01:16:17.410Z,-0.40
2023-01-19T01:19:04.166Z,-0.40
2023-01-19T01:21:51.150Z,-0.40
2023-01-19T01:24:38.141Z,-0.50
2023-01-19T01:27:24.700Z,-0.40
2023-01-19T01:30:13.874Z,-0.40
2023-01-19T01:33:02.267Z,-0.40
2023-01-19T01:35:50.226Z,-0.30
2023-01-19T01:38:36.444Z,-0.40
2023-01-19T01:41:25.379Z,-0.30
2023-01-19T01:44:49.858Z,-0.30
2023-01-19T01:47:42.683Z,-0.50
2023-01-19T01:50:33.591Z,-0.60
2023-01-19T01:53:19.992Z,-0.50
2023-01-19T01:56:10.722Z,-0.60
2023-01-19T01:58:58.105Z,-0.60
2023-01-19T02:02:02.483Z,-0.50
2023-01-19T02:04:52.521Z,-0.50
2023-01-19T02:08:07.504Z,-0.60
2023-01-19T02:11:12.762Z,-0.40
2023-01-19T02:13:59.487Z,-0.40
2023-01-19T02:16:46.632Z,-0.50
2023-01-19T02:19:39.595Z,-0.50
2023-01-19T02:22:35.801Z,-0.50
2023-01-19T02:25:25.153Z,-0.60
2023-01-19T02:28:12.403Z,-0.60
2023-01-19T02:30:59.209Z,-0.60
2023-01-19T02:33:45.781Z,-0.50
2023-01-19T02:36:36.653Z,-0.30
2023-01-19T02:39:28.941Z,-0.40
2023-01-19T02:42:20.101Z,-0.50
2023-01-19T02:45:09.533Z,-0.60
2023-01-19T02:47:57.047Z,-0.60
2023-01-19T02:50:49.338Z,-0.40
2023-01-19T02:53:50.478Z,-0.50
2023-01-19T02:56:46.268Z,-0.40
2023-01-19T02:59:50.430Z,-0.50
2023-01-19T03:02:49.596Z,-0.50
2023-01-19T03:05:56.710Z,-0.40
2023-01-19T03:08:48.781Z,-0.50
2023-01-19T03:11:46.204Z,-0.50
2023-01-19T03:14:38.283Z,-0.60
2023-01-19T03:17:25.729Z,-0.70
2023-01-19T03:20:14.385Z,-0.70
2023-01-19T03:23:05.222Z,-0.80
2023-01-19T03:25:54.010Z,-0.70
2023-01-19T03:28:42.909Z,-0.60
2023-01-19T03:31:34.088Z,-0.70
2023-01-19T03:34:23.928Z,-0.60
2023-01-19T03:37:12.339Z,-0.70
2023-01-19T03:39:59.090Z,-0.70
2023-01-19T03:42:46.217Z,-0.70
2023-01-19T03:45:35.591Z,-0.60
2023-01-19T03:48:24.137Z,-0.60
2023-01-19T03:51:11.935Z,-0.60
2023-01-19T03:53:58.385Z,-0.60
2023-01-19T03:56:44.807Z,-0.70
2023-01-19T03:59:31.145Z,-0.80
2023-01-19T04:02:17.782Z,-0.80
2023-01-19T04:05:06.207Z,-0.90
2023-01-19T04:07:53.833Z,-0.90
2023-01-19T04:10:40.269Z,-0.90
2023-01-19T04:13:28.810Z,-0.90
2023-01-19T04:16:19.900Z,-0.90
2023-01-19T04:19:06.270Z,-1.00
2023-01-19T04:21:55.349Z,-1.00
2023-01-19T04:24:41.676Z,-1.10
2023-01-19T04:27:28.956Z,-1.10
2023-01-19T04:30:16.770Z,-1.10
2023-01-19T04:33:03.576Z,-1.10
2023-01-19T04:35:54.395Z,-1.10
2023-01-19T04:38:42.892Z,-1.00
2023-01-19T04:41:30.337Z,-1.10
2023-01-19T04:44:17.534Z,-1.10
2023-01-19T04:47:03.857Z,-1.10
2023-01-19T04:49:50.159Z,-1.20
2023-01-19T04:52:37.236Z,-1.10
2023-01-19T04:55:25.859Z,-1.10
2023-01-19T04:58:12.243Z,-1.10
2023-01-19T05:00:58.543Z,-1.20
2023-01-19T05:03:45.008Z,-1.20
2023-01-19T05:06:31.238Z,-1.20
2023-01-19T05:09:18.169Z,-1.10
2023-01-19T05:12:06.549Z,-1.10
2023-01-19T05:14:53.000Z,-1.20
2023-01-19T05:17:39.268Z,-1.20
2023-01-19T05:20:25.705Z,-1.30
2023-01-19T05:23:12.284Z,-1.30
2023-01-19T05:26:00.682Z,-1.30
2023-01-19T05:28:48.640Z,-1.50
2023-01-19T05:31:36.060Z,-1.50
2023-01-19T05:34:22.880Z,-1.60
2023-01-19T05:37:09.224Z,-1.60
2023-01-19T05:39:55.780Z,-1.60
2023-01-19T05:42:41.985Z,-1.70
2023-01-19T05:45:29.689Z,-1.70
2023-01-19T05:48:16.322Z,-1.70
2023-01-19T05:51:02.963Z,-1.70
2023-01-19T05:53:49.409Z,-1.90
2023-01-19T05:56:36.318Z,-2.00
2023-01-19T05:59:24.469Z,-1.90
2023-01-19T06:02:12.385Z,-1.90
2023-01-19T06:04:58.791Z,-1.90
2023-01-19T06:07:45.613Z,-1.80
2023-01-19T06:10:31.945Z,-1.80
2023-01-19T06:13:19.097Z,-1.70
2023-01-19T06:16:06.620Z,-1.70
2023-01-19T06:18:55.858Z,-1.70
2023-01-19T06:21:42.535Z,-1.70
2023-01-19T06:24:29.638Z,-1.70
2023-01-19T06:27:16.040Z,-1.70
2023-01-19T06:30:02.246Z,-1.70
2023-01-19T06:32:48.728Z,-1.60
2023-01-19T06:35:36.886Z,-1.70
2023-01-19T06:38:23.318Z,-1.70
2023-01-19T06:41:10.118Z,-1.70
2023-01-19T06:43:56.345Z,-1.80
2023-01-19T06:46:42.637Z,-1.70
2023-01-19T06:49:29.031Z,-1.70
2023-01-19T06:52:18.277Z,-1.60
2023-01-19T06:55:04.853Z,-1.60
2023-01-19T06:57:57.849Z,-1.50
2023-01-19T07:00:44.469Z,-1.50
2023-01-19T07:03:30.970Z,-1.50
2023-01-19T07:06:17.742Z,-1.50
2023-01-19T07:09:08.015Z,-1.60
2023-01-19T07:11:55.659Z,-1.60
2023-01-19T07:14:42.313Z,-1.60
2023-01-19T07:17:28.710Z,-1.60
2023-01-19T07:20:15.289Z,-1.60
2023-01-19T07:23:03.101Z,-1.50
2023-01-19T07:25:51.424Z,-1.50
2023-01-19T07:28:38.042Z,-1.30
2023-01-19T07:31:24.981Z,-1.30
2023-01-19T07:34:12.612Z,-1.40
2023-01-19T07:36:59.242Z,-1.40
2023-01-19T07:39:45.499Z,-1.30
2023-01-19T07:42:33.318Z,-1.10
2023-01-19T07:45:21.313Z,-1.00
2023-01-19T07:48:08.178Z,-0.80
2023-01-19T07:50:55.263Z,-0.70
2023-01-19T07:53:42.472Z,-0.50
2023-01-19T07:56:32.687Z,-0.30
2023-01-19T07:59:20.695Z,-0.10
2023-01-19T08:02:07.844Z,0.10
2023-01-19T08:04:55.116Z,0.20
2023-01-19T08:07:41.897Z,0.40
2023-01-19T08:10:29.914Z,0.50
2023-01-19T08:13:16.209Z,0.70
2023-01-19T08:16:03.776Z,1.00
2023-01-19T08:18:49.998Z,1.10
2023-01-19T08:21:38.326Z,1.40
2023-01-19T08:24:28.419Z,1.60
2023-01-19T08:27:14.945Z,1.90
2023-01-19T08:30:01.457Z,2.10
2023-01-19T08:32:49.477Z,2.10
2023-01-19T08:35:37.741Z,2.30
2023-01-19T08:38:24.768Z,2.50
2023-01-19T08:41:11.332Z,2.70
2023-01-19T08:43:57.602Z,2.70
2023-01-19T08:46:43.937Z,2.90
2023-01-19T08:49:31.735Z,2.90
2023-01-19T08:52:18.301Z,2.90
2023-01-19T08:55:05.445Z,2.90
2023-01-19T08:57:53.020Z,2.70
2023-01-19T09:00:40.911Z,2.70
2023-01-19T09:03:27.247Z,2.80
2023-01-19T09:06:17.074Z,2.90
2023-01-19T09:09:03.500Z,2.80
2023-01-19T09:11:50.266Z,3.00
2023-01-19T09:14:36.883Z,3.20
2023-01-19T09:17:23.067Z,3.40
2023-01-19T09:20:10.797Z,3.50
2023-01-19T09:22:59.249Z,3.60
2023-01-19T09:25:46.892Z,3.70
2023-01-19T09:28:34.087Z,3.80
2023-01-19T09:31:20.707Z,3.80
2023-01-19T09:34:07.896Z,3.90
2023-01-19T09:36:54.623Z,3.90
2023-01-19T09:39:42.731Z,3.90
2023-01-19T09:42:36.703Z,3.90
2023-01-19T09:45:30.309Z,4.00
2023-01-19T09:48:27.083Z,4.00
2023-01-19T09:51:17.699Z,4.20
2023-01-19T09:54:11.985Z,4.20
2023-01-19T09:57:00.029Z,4.10
2023-01-19T09:59:49.353Z,4.20
2023-01-19T10:02:40.897Z,4.50
2023-01-19T10:05:32.578Z,4.60
2023-01-19T10:08:25.713Z,4.60
2023-01-19T10:11:22.788Z,4.60
2023-01-19T10:14:19.979Z,4.60
2023-01-19T10:17:16.517Z,4.40
2023-01-19T10:20:05.916Z,4.40
2023-01-19T10:22:52.212Z,4.50
2023-01-19T10:25:38.508Z,4.80
2023-01-19T10:28:27.662Z,4.80
2023-01-19T10:31:17.689Z,4.90
2023-01-19T10:34:05.157Z,4.90
2023-01-19T10:37:05.075Z,5.00
2023-01-19T10:39:56.672Z,4.90
2023-01-19T10:42:43.867Z,4.90
2023-01-19T10:45:32.234Z,5.00
2023-01-19T10:48:19.843Z,5.00
2023-01-19T10:51:07.520Z,5.00
2023-01-19T10:53:57.695Z,5.00
2023-01-19T10:56:44.638Z,4.90
2023-01-19T10:59:34.385Z,5.00
2023-01-19T11:02:22.724Z,4.90
2023-01-19T11:05:26.456Z,4.80
2023-01-19T11:08:23.948Z,4.60
2023-01-19T11:11:12.365Z,4.60
2023-01-19T11:14:10.636Z,4.50
2023-01-19T11:16:58.888Z,4.50
2023-01-19T11:19:53.517Z,4.40
2023-01-19T11:22:41.602Z,4.40
2023-01-19T11:25:33.605Z,4.30
2023-01-19T11:28:23.837Z,4.40
2023-01-19T11:31:20.356Z,4.30
2023-01-19T11:34:24.534Z,4.50
2023-01-19T11:37:28.601Z,4.30
2023-01-19T11:40:18.114Z,4.30
2023-01-19T11:43:04.300Z,4.20
2023-01-19T11:45:50.835Z,4.30
2023-01-19T11:48:42.222Z,4.30
2023-01-19T11:51:32.040Z,4.20
2023-01-19T11:54:23.715Z,4.30
2023-01-19T11:57:17.101Z,4.40
2023-01-19T12:00:12.422Z,4.60
2023-01-19T12:03:02.878Z,4.70
2023-01-19T12:05:52.714Z,5.00
2023-01-19T12:08:44.623Z,5.00
2023-01-19T12:11:37.132Z,5.00
2023-01-19T12:14:28.213Z,5.20
2023-01-19T12:17:24.298Z,5.10
2023-01-19T12:20:29.469Z,5.00
2023-01-19T12:23:25.936Z,5.00
2023-01-19T12:26:31.891Z,5.10
2023-01-19T12:29:21.783Z,4.90
2023-01-19T12:32:34.872Z,4.70
2023-01-19T12:35:56.907Z,4.80
2023-01-19T12:38:47.457Z,4.80
2023-01-19T12:41:35.466Z,4.80
2023-01-19T12:44:27.618Z,4.70
2023-01-19T12:47:24.425Z,4.90
2023-01-19T12:50:17.395Z,4.70
2023-01-19T12:53:08.226Z,4.70
2023-01-19T12:56:01.197Z,4.70
2023-01-19T12:58:50.278Z,4.70
2023-01-19T13:01:36.964Z,4.70
2023-01-19T13:04:34.161Z,4.80
2023-01-19T13:07:20.750Z,4.80
2023-01-19T13:10:40.469Z,4.60
2023-01-19T13:13:28.925Z,4.70
2023-01-19T13:16:53.778Z,4.70
2023-01-19T13:19:52.589Z,4.70
2023-01-19T13:23:10.837Z,4.50
2023-01-19T13:26:06.923Z,4.60
2023-01-19T13:28:56.098Z,4.40
2023-01-19T13:31:45.822Z,4.50
2023-01-19T13:34:37.946Z,4.40
2023-01-19T13:37:31.813Z,4.50
2023-01-19T13:40:22.722Z,4.30
2023-01-19T13:43:18.540Z,4.40
2023-01-19T13:46:05.566Z,4.40
2023-01-19T13:48:57.720Z,4.40
2023-01-19T13:51:44.361Z,4.50
2023-01-19T13:54:32.407Z,4.50
2023-01-19T13:57:27.849Z,4.60
2023-01-19T14:00:20.477Z,4.60
2023-01-19T14:03:21.238Z,4.60
2023-01-19T14:06:21.463Z,4.60
2023-01-19T14:09:16.490Z,4.60
2023-01-19T14:12:14.003Z,4.70
2023-01-19T14:15:01.635Z,4.70
2023-01-19T14:18:10.078Z,4.60
2023-01-19T14:20:59.390Z,4.60
2023-01-19T14:23:48.429Z,4.60
2023-01-19T14:26:45.936Z,4.40
2023-01-19T14:29:33.833Z,4.50
2023-01-19T14:32:22.506Z,4.40
2023-01-19T14:35:25.712Z,4.30
2023-01-19T14:38:15.925Z,4.30
2023-01-19T14:41:02.520Z,4.30
2023-01-19T14:43:48.781Z,4.30
2023-01-19T14:46:35.645Z,4.30
2023-01-19T14:49:25.768Z,4.20
2023-01-19T14:52:22.590Z,4.20
2023-01-19T14:55:20.537Z,4.10
2023-01-19T14:58:12.060Z,4.10
2023-01-19T15:00:58.710Z,4.10
2023-01-19T15:03:45.973Z,4.10
2023-01-19T15:06:33.425Z,4.10
2023-01-19T15:09:21.083Z,4.00
2023-01-19T15:12:11.789Z,3.90
2023-01-19T15:14:58.387Z,4.00
2023-01-19T15:17:45.236Z,3.90
2023-01-19T15:20:31.893Z,3.90
2023-01-19T15:23:18.427Z,3.90
2023-01-19T15:26:06.844Z,3.90
2023-01-19T15:28:53.681Z,3.90
2023-01-19T15:31:40.518Z,3.90
2023-01-19T15:34:26.862Z,3.80
2023-01-19T15:37:13.334Z,3.80
2023-01-19T15:39:59.663Z,3.90
2023-01-19T15:42:47.399Z,3.90
2023-01-19T15:45:37.038Z,3.80
2023-01-19T15:48:23.262Z,3.70
2023-01-19T15:51:13.561Z,3.70
2023-01-19T15:54:00.114Z,3.70
2023-01-19T15:56:46.605Z,3.70
2023-01-19T15:59:34.283Z,3.70
2023-01-19T16:02:20.757Z,3.80
2023-01-19T16:05:08.547Z,3.70
2023-01-19T16:07:54.839Z,3.70
2023-01-19T16:10:41.776Z,3.70
2023-01-19T16:13:30.125Z,3.60
2023-01-19T16:16:20.198Z,3.60
2023-01-19T16:19:06.665Z,3.60
2023-01-19T16:21:53.034Z,3.70
2023-01-19T16:24:39.396Z,3.70
2023-01-19T16:27:25.981Z,3.70
2023-01-19T16:30:13.528Z,3.70
2023-01-19T16:33:01.530Z,3.70
2023-01-19T16:35:47.878Z,3.60
2023-01-19T16:38:34.020Z,3.70
2023-01-19T16:41:20.844Z,3.70
2023-01-19T16:44:08.130Z,3.70
2023-01-19T16:46:54.604Z,3.70
2023-01-19T16:49:42.649Z,3.60
2023-01-19T16:52:28.994Z,3.50
2023-01-19T16:55:15.328Z,3.60
2023-01-19T16:58:01.686Z,3.60
2023-01-19T17:00:48.255Z,3.60
2023-01-19T17:03:34.427Z,3.60
2023-01-19T17:06:23.611Z,3.60
2023-01-19T17:09:10.910Z,3.60
2023-01-19T17:11:59.157Z,3.60
2023-01-19T17:14:47.225Z,3.70
2023-01-19T17:17:34.918Z,3.60
2023-01-19T17:20:21.358Z,3.60
2023-01-19T17:23:09.122Z,3.50
2023-01-19T17:25:55.920Z,3.50
2023-01-19T17:28:42.702Z,3.60
2023-01-19T17:31:32.001Z,3.60
2023-01-19T17:34:18.579Z,3.60
2023-01-19T17:37:05.088Z,3.60
2023-01-19T17:39:52.772Z,3.50
2023-01-19T17:42:40.974Z,3.50
2023-01-19T17:45:27.489Z,3.40
2023-01-19T17:48:14.131Z,3.40
2023-01-19T17:51:03.415Z,3.40
2023-01-19T17:53:51.025Z,3.30
2023-01-19T17:56:41.154Z,3.40
2023-01-19T17:59:27.675Z,3.30
2023-01-19T18:02:14.041Z,3.30
2023-01-19T18:05:02.503Z,3.30
2023-01-19T18:08:03.878Z,3.20
2023-01-19T18:10:55.350Z,3.20
2023-01-19T18:13:45.088Z,3.10
2023-01-19T18:16:32.432Z,3.20
2023-01-19T18:19:21.189Z,3.10
2023-01-19T18:22:07.833Z,3.10
2023-01-19T18:24:54.363Z,3.10
2023-01-19T18:27:40.606Z,3.00
2023-01-19T18:30:29.357Z,3.10
2023-01-19T18:33:15.794Z,3.00
2023-01-19T18:36:02.481Z,3.00
2023-01-19T18:38:49.940Z,2.90
2023-01-19T18:41:40.389Z,3.10
2023-01-19T18:44:26.781Z,3.10
2023-01-19T18:47:14.471Z,3.00
2023-01-19T18:50:00.861Z,3.10
2023-01-19T18:52:48.636Z,3.10
2023-01-19T18:55:36.272Z,3.00
2023-01-19T18:58:23.229Z,3.10
2023-01-19T19:01:20.533Z,3.10
2023-01-19T19:04:09.100Z,3.10
2023-01-19T19:06:55.502Z,3.20
2023-01-19T19:09:41.902Z,3.20
2023-01-19T19:12:28.395Z,3.20
2023-01-19T19:15:14.944Z,3.20
2023-01-19T19:18:01.494Z,3.20
2023-01-19T19:20:49.341Z,3.30
2023-01-19T19:23:36.588Z,3.30
2023-01-19T19:26:24.163Z,3.20
2023-01-19T19:29:10.514Z,3.20
2023-01-19T19:31:57.067Z,3.30
2023-01-19T19:34:43.421Z,3.20
2023-01-19T19:37:31.218Z,3.10
2023-01-19T19:40:17.865Z,3.20
2023-01-19T19:43:04.580Z,3.20
2023-01-19T19:45:58.855Z,3.20
2023-01-19T19:48:45.718Z,3.30
2023-01-19T19:51:32.101Z,3.30
2023-01-19T19:54:19.951Z,3.30
2023-01-19T19:57:06.676Z,3.30
2023-01-19T19:59:52.932Z,3.30
2023-01-19T20:02:39.293Z,3.30
2023-01-19T20:05:25.598Z,3.30
2023-01-19T20:08:11.913Z,3.30
2023-01-19T20:11:07.227Z,3.30
2023-01-19T20:13:53.973Z,3.20
2023-01-19T20:16:40.974Z,3.10
2023-01-19T20:19:27.600Z,3.10
2023-01-19T20:22:14.026Z,3.10
2023-01-19T20:25:00.501Z,3.20
2023-01-19T20:27:48.198Z,3.20
2023-01-19T20:30:34.648Z,3.10
2023-01-19T20:33:21.057Z,3.10
2023-01-19T20:36:07.690Z,3.10
2023-01-19T20:38:55.741Z,3.10
2023-01-19T20:41:44.990Z,3.20
2023-01-19T20:44:33.240Z,3.10
2023-01-19T20:47:20.183Z,3.10
2023-01-19T20:50:07.467Z,3.10
2023-01-19T20:52:53.891Z,3.00
2023-01-19T20:55:40.214Z,3.10
2023-01-19T20:58:26.637Z,3.10
2023-01-19T21:01:16.846Z,3.20
2023-01-19T21:04:03.783Z,3.10
2023-01-19T21:06:50.397Z,3.20
2023-01-19T21:09:38.099Z,3.20
2023-01-19T21:12:24.730Z,3.20
2023-01-19T21:15:11.975Z,3.20
2023-01-19T21:18:01.684Z,3.20
2023-01-19T21:20:49.087Z,3.20
2023-01-19T21:23:35.678Z,3.20
2023-01-19T21:26:22.329Z,3.10
2023-01-19T21:29:13.073Z,3.20
2023-01-19T21:32:00.957Z,3.10
2023-01-19T21:34:48.508Z,3.10
2023-01-19T21:37:34.933Z,3.10
2023-01-19T21:40:21.500Z,3.10
2023-01-19T21:43:08.140Z,3.00
2023-01-19T21:45:54.360Z,3.10
2023-01-19T21:48:41.406Z,3.00
2023-01-19T21:51:29.599Z,3.00
2023-01-19T21:54:15.973Z,3.00
2023-01-19T21:57:02.790Z,3.00
2023-01-19T21:59:50.574Z,3.00
2023-01-19T22:02:39.107Z,3.00
2023-01-19T22:05:26.169Z,3.00
2023-01-19T22:08:14.294Z,3.00
2023-01-19T22:11:05.532Z,3.00
2023-01-19T22:13:52.430Z,3.00
2023-01-19T22:16:38.803Z,3.00
2023-01-19T22:19:25.268Z,3.00
2023-01-19T22:22:11.985Z,3.10
2023-01-19T22:24:59.778Z,3.00
2023-01-19T22:27:46.064Z,3.00
2023-01-19T22:30:33.487Z,3.00
2023-01-19T22:33:20.101Z,3.00
2023-01-19T22:36:15.988Z,3.00
2023-01-19T22:39:04.281Z,3.00
2023-01-19T22:41:52.428Z,3.00
2023-01-19T22:44:38.789Z,2.90
2023-01-19T22:47:25.284Z,2.70
2023-01-19T22:50:12.188Z,2.80
2023-01-19T22:52:58.631Z,2.80
2023-01-19T22:55:45.537Z,2.90
2023-01-19T22:58:33.119Z,2.80
2023-01-19T23:01:21.325Z,2.90
2023-01-19T23:04:09.983Z,2.80
2023-01-19T23:06:56.485Z,2.90
2023-01-19T23:09:42.673Z,2.90
2023-01-19T23:12:28.955Z,2.90
2023-01-19T23:15:16.786Z,2.90
2023-01-19T23:18:03.329Z,2.90
2023-01-19T23:20:49.731Z,2.90
2023-01-19T23:23:36.506Z,2.80
2023-01-19T23:26:24.028Z,2.80
2023-01-19T23:29:13.113Z,2.80
2023-01-19T23:32:03.438Z,2.80
2023-01-19T23:34:49.735Z,2.90
2023-01-19T23:37:36.024Z,2.80
2023-01-19T23:40:22.408Z,2.80
2023-01-19T23:43:09.049Z,2.90
2023-01-19T23:45:55.500Z,2.90
2023-01-19T23:48:43.398Z,2.90
2023-01-19T23:51:32.727Z,2.90
2023-01-19T23:54:19.056Z,2.90
2023-01-19T23:57:05.478Z,2.90
2023-01-19T23:59:51.903Z,2.80
